createdAt,value
2022-11-28T00:01:24.127Z,100145.06
2022-11-28T00:03:51.091Z,100136.34
2022-11-28T00:06:18.061Z,100134.59
2022-11-28T00:08:45.195Z,100135.59
2022-11-28T00:11:13.523Z,100142.63
2022-11-28T00:13:40.588Z,100136.44
2022-11-28T00:16:09.184Z,100130.25
2022-11-28T00:18:35.939Z,100123.09
2022-11-28T00:21:05.560Z,100124.94
2022-11-28T00:23:33.143Z,100117.91
2022-11-28T00:26:01.613Z,100109.94
2022-11-28T00:28:28.429Z,100116.16
2022-11-28T00:30:54.844Z,100114.38
2022-11-28T00:33:21.648Z,100112.63
2022-11-28T00:35:48.094Z,100110.03
2022-11-28T00:38:14.513Z,100111.78
2022-11-28T00:40:41.004Z,100108.19
2022-11-28T00:43:07.418Z,100117.00
2022-11-28T00:45:33.850Z,100109.78
2022-11-28T00:48:00.340Z,100112.31
2022-11-28T00:50:26.911Z,100105.41
2022-11-28T00:52:53.427Z,100103.44
2022-11-28T00:55:19.798Z,100100.81
2022-11-28T00:57:46.497Z,100104.47
2022-11-28T01:00:13.497Z,100099.94
2022-11-28T01:02:39.918Z,100096.38
2022-11-28T01:05:06.876Z,100094.66
2022-11-28T01:07:34.052Z,100097.22
2022-11-28T01:10:00.488Z,100103.91
2022-11-28T01:12:26.884Z,100093.34
2022-11-28T01:14:53.734Z,100089.19
2022-11-28T01:17:20.075Z,100078.53
2022-11-28T01:19:46.468Z,100081.53
2022-11-28T01:22:12.865Z,100078.91
2022-11-28T01:24:39.582Z,100078.94
2022-11-28T01:27:06.271Z,100075.47
2022-11-28T01:29:32.662Z,100071.25
2022-11-28T01:31:59.219Z,100059.78
2022-11-28T01:34:25.618Z,100071.19
2022-11-28T01:36:52.012Z,100067.81
2022-11-28T01:39:18.455Z,100065.13
2022-11-28T01:41:45.995Z,100059.88
2022-11-28T01:44:15.063Z,100057.97
2022-11-28T01:46:42.310Z,100057.19
2022-11-28T01:49:13.757Z,100051.75
2022-11-28T01:51:45.059Z,100040.50
2022-11-28T01:54:12.902Z,100045.94
2022-11-28T01:56:55.295Z,100039.63
2022-11-28T01:59:26.412Z,100039.59
2022-11-28T02:01:53.077Z,100039.56
2022-11-28T02:04:20.270Z,100041.44
2022-11-28T02:06:46.609Z,100031.72
2022-11-28T02:09:16.055Z,100036.13
2022-11-28T02:11:57.099Z,100030.81
2022-11-28T02:14:57.572Z,100026.56
2022-11-28T02:17:35.807Z,100028.31
2022-11-28T02:20:36.007Z,100023.09
2022-11-28T02:23:36.246Z,100019.56
2022-11-28T02:26:12.888Z,100015.06
2022-11-28T02:29:15.554Z,100020.34
2022-11-28T02:32:12.718Z,100021.34
2022-11-28T02:34:48.545Z,100014.31
2022-11-28T02:37:25.768Z,100012.44
2022-11-28T02:40:00.835Z,100019.56
2022-11-28T02:42:51.544Z,100022.28
2022-11-28T02:45:28.870Z,100011.66
2022-11-28T02:48:02.777Z,100000.38
2022-11-28T02:50:35.699Z,99998.63
2022-11-28T02:53:19.292Z,99995.13
2022-11-28T02:55:46.059Z,99990.75
2022-11-28T02:58:13.123Z,99989.66
2022-11-28T03:00:44.466Z,99990.56
2022-11-28T03:03:29.090Z,99990.53
2022-11-28T03:06:01.836Z,99990.59
2022-11-28T03:08:54.881Z,99988.09
2022-11-28T03:11:33.140Z,99990.72
2022-11-28T03:14:35.008Z,99986.31
2022-11-28T03:17:07.591Z,99977.75
2022-11-28T03:19:42.831Z,99976.81
2022-11-28T03:22:25.189Z,99977.75
2022-11-28T03:25:00.733Z,99976.91
2022-11-28T03:27:42.020Z,99962.75
2022-11-28T03:30:24.632Z,99969.94
2022-11-28T03:32:54.880Z,99962.03
2022-11-28T03:35:26.312Z,99961.16
2022-11-28T03:38:02.217Z,99950.03
2022-11-28T03:40:33.333Z,99950.75
2022-11-28T03:43:12.563Z,99948.09
2022-11-28T03:45:42.427Z,99956.88
2022-11-28T03:48:15.763Z,99949.97
2022-11-28T03:50:47.131Z,99945.59
2022-11-28T03:53:30.763Z,99950.72
2022-11-28T03:56:34.073Z,99953.25
2022-11-28T03:59:06.452Z,99958.53
2022-11-28T04:02:01.670Z,99955.81
2022-11-28T04:04:47.956Z,99954.97
2022-11-28T04:07:23.602Z,99954.19
2022-11-28T04:09:54.418Z,99961.25
2022-11-28T04:12:35.152Z,99947.28
2022-11-28T04:15:11.755Z,99942.72
2022-11-28T04:17:49.331Z,99944.50
2022-11-28T04:20:32.723Z,99953.41
2022-11-28T04:23:06.592Z,99942.81
2022-11-28T04:25:37.418Z,99939.41
2022-11-28T04:28:08.882Z,99935.94
2022-11-28T04:30:37.592Z,99937.56
2022-11-28T04:33:07.635Z,99947.47
2022-11-28T04:35:40.385Z,99947.34
2022-11-28T04:38:09.499Z,99953.50
2022-11-28T04:40:41.406Z,99951.78
2022-11-28T04:43:14.125Z,99939.16
2022-11-28T04:45:51.329Z,99935.81
2022-11-28T04:48:18.104Z,99939.19
2022-11-28T04:51:16.844Z,99941.16
2022-11-28T04:54:11.680Z,99941.91
2022-11-28T04:56:44.834Z,99933.25
2022-11-28T04:59:13.495Z,99934.19
2022-11-28T05:01:41.807Z,99930.69
2022-11-28T05:04:08.668Z,99914.78
2022-11-28T05:06:36.464Z,99910.47
2022-11-28T05:09:04.359Z,99907.94
2022-11-28T05:11:31.476Z,99921.03
2022-11-28T05:13:57.888Z,99902.56
2022-11-28T05:16:24.386Z,99907.81
2022-11-28T05:18:50.797Z,99905.88
2022-11-28T05:21:17.200Z,99911.16
2022-11-28T05:23:45.310Z,99912.03
2022-11-28T05:26:17.750Z,99920.78
2022-11-28T05:28:45.920Z,99925.19
2022-11-28T05:31:13.134Z,99926.41
2022-11-28T05:33:40.343Z,99927.16
2022-11-28T05:36:12.795Z,99923.91
2022-11-28T05:38:40.409Z,99923.09
2022-11-28T05:41:07.170Z,99919.69
2022-11-28T05:43:33.537Z,99916.19
2022-11-28T05:45:59.970Z,99915.47
2022-11-28T05:48:26.436Z,99926.88
2022-11-28T05:50:52.947Z,99920.81
2022-11-28T05:53:20.049Z,99930.50
2022-11-28T05:55:47.164Z,99924.09
2022-11-28T05:58:13.626Z,99935.56
2022-11-28T06:00:40.159Z,99937.31
2022-11-28T06:03:06.962Z,99926.94
2022-11-28T06:05:42.821Z,99933.25
2022-11-28T06:08:12.569Z,99922.28
2022-11-28T06:10:39.152Z,99932.03
2022-11-28T06:13:05.667Z,99918.88
2022-11-28T06:15:37.578Z,99918.94
2022-11-28T06:18:04.480Z,99924.28
2022-11-28T06:20:30.856Z,99920.75
2022-11-28T06:22:57.295Z,99917.22
2022-11-28T06:25:23.652Z,99924.16
2022-11-28T06:27:49.972Z,99916.28
2022-11-28T06:30:16.683Z,99919.03
2022-11-28T06:32:43.011Z,99912.94
2022-11-28T06:35:09.622Z,99919.19
2022-11-28T06:37:36.079Z,99921.78
2022-11-28T06:40:02.608Z,99917.44
2022-11-28T06:42:28.933Z,99917.50
2022-11-28T06:44:55.328Z,99916.44
2022-11-28T06:47:21.705Z,99915.53
2022-11-28T06:49:49.121Z,99910.09
2022-11-28T06:52:15.480Z,99914.66
2022-11-28T06:54:42.253Z,99922.47
2022-11-28T06:57:08.583Z,99923.41
2022-11-28T06:59:34.967Z,99944.34
2022-11-28T07:02:07.434Z,99943.13
2022-11-28T07:04:34.307Z,99947.56
2022-11-28T07:07:00.913Z,99951.88
2022-11-28T07:09:27.639Z,99944.97
2022-11-28T07:11:54.028Z,99945.13
2022-11-28T07:14:20.460Z,99939.00
2022-11-28T07:16:49.047Z,99942.41
2022-11-28T07:19:16.247Z,99937.09
2022-11-28T07:21:42.674Z,99928.69
2022-11-28T07:24:09.043Z,99942.03
2022-11-28T07:26:37.853Z,99942.63
2022-11-28T07:29:06.242Z,99950.53
2022-11-28T07:31:33.766Z,99946.91
2022-11-28T07:34:03.263Z,99942.63
2022-11-28T07:36:30.494Z,99942.63
2022-11-28T07:39:00.056Z,99949.97
2022-11-28T07:41:27.433Z,99948.66
2022-11-28T07:43:56.751Z,99952.72
2022-11-28T07:46:23.928Z,99942.66
2022-11-28T07:48:50.351Z,99946.31
2022-11-28T07:51:25.684Z,99950.72
2022-11-28T07:53:52.199Z,99949.78
2022-11-28T07:56:24.773Z,99947.25
2022-11-28T07:58:51.595Z,99936.66
2022-11-28T08:01:26.156Z,99938.59
2022-11-28T08:03:53.138Z,99932.34
2022-11-28T08:06:23.328Z,99931.53
2022-11-28T08:08:50.632Z,99929.03
2022-11-28T08:11:18.818Z,99938.47
2022-11-28T08:13:45.847Z,99949.78
2022-11-28T08:16:20.678Z,99947.75
2022-11-28T08:18:48.437Z,99950.47
2022-11-28T08:21:18.668Z,99949.44
2022-11-28T08:23:45.687Z,99957.38
2022-11-28T08:26:14.819Z,99958.28
2022-11-28T08:28:41.656Z,99949.41
2022-11-28T08:31:14.085Z,99950.16
2022-11-28T08:33:41.138Z,99939.63
2022-11-28T08:36:10.209Z,99947.63
2022-11-28T08:38:37.294Z,99939.84
2022-11-28T08:41:06.373Z,99944.22
2022-11-28T08:43:34.685Z,99939.78
2022-11-28T08:46:01.410Z,99939.47
2022-11-28T08:48:27.921Z,99938.84
2022-11-28T08:50:54.244Z,99943.31
2022-11-28T08:53:20.653Z,99943.28
2022-11-28T08:55:47.063Z,99937.84
2022-11-28T08:58:14.764Z,99937.09
2022-11-28T09:00:44.883Z,99940.50
2022-11-28T09:03:15.288Z,99940.47
2022-11-28T09:05:42.836Z,99937.84
2022-11-28T09:08:11.758Z,99938.53
2022-11-28T09:10:39.896Z,99933.06
2022-11-28T09:13:07.069Z,99938.28
2022-11-28T09:15:33.735Z,99935.88
2022-11-28T09:18:00.385Z,99938.41
2022-11-28T09:20:27.091Z,99948.94
2022-11-28T09:22:53.472Z,99953.91
2022-11-28T09:25:19.855Z,99953.38
2022-11-28T09:27:46.264Z,99951.50
2022-11-28T09:30:13.214Z,99954.66
2022-11-28T09:32:39.601Z,99951.38
2022-11-28T09:35:06.277Z,99951.22
2022-11-28T09:37:32.712Z,99952.31
2022-11-28T09:40:12.583Z,99940.81
2022-11-28T09:42:43.950Z,99943.75
2022-11-28T09:45:33.041Z,99945.50
2022-11-28T09:48:25.480Z,99941.78
2022-11-28T09:50:57.928Z,99942.88
2022-11-28T09:53:34.456Z,99942.09
2022-11-28T09:56:11.604Z,99942.69
2022-11-28T09:58:55.336Z,99949.06
2022-11-28T10:01:36.946Z,99943.31
2022-11-28T10:04:25.102Z,99946.97
2022-11-28T10:06:57.750Z,99944.34
2022-11-28T10:09:29.899Z,99940.94
2022-11-28T10:12:31.200Z,99942.69
2022-11-28T10:15:21.895Z,99943.94
2022-11-28T10:17:48.299Z,99943.19
2022-11-28T10:20:41.465Z,99937.03
2022-11-28T10:23:19.808Z,99935.13
2022-11-28T10:26:02.159Z,99933.63
2022-11-28T10:28:33.637Z,99933.56
2022-11-28T10:31:06.817Z,99936.31
2022-11-28T10:33:55.982Z,99930.00
2022-11-28T10:36:27.716Z,99925.50
2022-11-28T10:38:54.218Z,99929.47
2022-11-28T10:41:23.471Z,99925.91
2022-11-28T10:44:21.166Z,99926.03
2022-11-28T10:46:57.352Z,99927.75
2022-11-28T10:49:26.491Z,99928.84
2022-11-28T10:52:17.376Z,99923.75
2022-11-28T10:54:49.795Z,99921.34
2022-11-28T10:57:37.941Z,99920.56
2022-11-28T11:00:14.927Z,99923.28
2022-11-28T11:02:46.413Z,99924.03
2022-11-28T11:05:18.796Z,99924.19
2022-11-28T11:07:51.827Z,99921.47
2022-11-28T11:10:23.943Z,99918.81
2022-11-28T11:12:52.665Z,99922.78
2022-11-28T11:15:21.105Z,99914.88
2022-11-28T11:17:47.689Z,99916.53
2022-11-28T11:20:23.179Z,99921.78
2022-11-28T11:22:57.655Z,99912.50
2022-11-28T11:25:26.347Z,99908.78
2022-11-28T11:27:55.855Z,99900.41
2022-11-28T11:30:42.805Z,99907.69
2022-11-28T11:33:16.777Z,99905.97
2022-11-28T11:35:47.538Z,99913.91
2022-11-28T11:38:16.707Z,99908.72
2022-11-28T11:40:43.513Z,99906.63
2022-11-28T11:43:28.476Z,99904.72
2022-11-28T11:46:11.117Z,99894.31
2022-11-28T11:48:52.211Z,99892.75
2022-11-28T11:51:21.644Z,99897.50
2022-11-28T11:53:48.501Z,99908.50
2022-11-28T11:56:15.416Z,99910.03
2022-11-28T11:58:49.511Z,99897.09
2022-11-28T12:01:18.542Z,99901.19
2022-11-28T12:04:23.688Z,99907.53
2022-11-28T12:06:55.543Z,99899.50
2022-11-28T12:09:35.131Z,99900.34
2022-11-28T12:12:22.305Z,99912.66
2022-11-28T12:14:49.913Z,99903.72
2022-11-28T12:17:50.067Z,99905.81
2022-11-28T12:20:33.231Z,99905.31
2022-11-28T12:23:32.410Z,99899.16
2022-11-28T12:26:07.261Z,99901.03
2022-11-28T12:28:47.547Z,99892.63
2022-11-28T12:31:46.212Z,99897.53
2022-11-28T12:34:39.604Z,99899.03
2022-11-28T12:37:14.571Z,99896.66
2022-11-28T12:40:07.303Z,99904.44
2022-11-28T12:42:41.426Z,99895.72
2022-11-28T12:45:33.011Z,99886.84
2022-11-28T12:48:08.621Z,99887.41
2022-11-28T12:50:49.202Z,99883.88
2022-11-28T12:53:18.529Z,99883.81
2022-11-28T12:55:56.497Z,99883.28
2022-11-28T12:58:48.532Z,99880.66
2022-11-28T13:01:27.231Z,99879.56
2022-11-28T13:04:12.057Z,99878.16
2022-11-28T13:07:08.225Z,99873.72
2022-11-28T13:09:43.611Z,99870.88
2022-11-28T13:12:25.657Z,99872.59
2022-11-28T13:14:57.595Z,99879.22
2022-11-28T13:17:39.072Z,99875.59
2022-11-28T13:20:29.599Z,99871.78
2022-11-28T13:23:08.207Z,99871.03
2022-11-28T13:25:47.276Z,99876.75
2022-11-28T13:28:32.293Z,99882.63
2022-11-28T13:31:20.153Z,99876.09
2022-11-28T13:33:55.365Z,99871.16
2022-11-28T13:39:33.720Z,99875.75
2022-11-28T13:42:59.371Z,99876.53
2022-11-28T13:45:28.376Z,99874.00
2022-11-28T13:47:58.629Z,99868.91
2022-11-28T13:50:25.112Z,99868.31
2022-11-28T13:52:58.990Z,99876.09
2022-11-28T13:55:39.293Z,99873.81
2022-11-28T13:58:25.417Z,99868.75
2022-11-28T14:01:17.637Z,99884.06
2022-11-28T14:03:52.080Z,99879.78
2022-11-28T14:06:22.412Z,99869.69
2022-11-28T14:09:03.608Z,99875.47
2022-11-28T14:11:54.972Z,99878.19
2022-11-28T14:14:56.974Z,99871.69
2022-11-28T14:17:40.039Z,99866.84
2022-11-28T14:20:30.956Z,99863.53
2022-11-28T14:23:21.422Z,99871.78
2022-11-28T14:25:54.702Z,99874.56
2022-11-28T14:28:30.496Z,99872.06
2022-11-28T14:31:22.046Z,99869.44
2022-11-28T14:33:48.463Z,99866.00
2022-11-28T14:36:34.023Z,99876.69
2022-11-28T14:39:08.065Z,99870.28
2022-11-28T14:42:06.554Z,99877.34
2022-11-28T14:45:01.938Z,99880.19
2022-11-28T14:47:39.383Z,99884.88
2022-11-28T14:50:05.750Z,99886.06
2022-11-28T14:52:41.417Z,99884.97
2022-11-28T14:55:08.077Z,99884.81
2022-11-28T14:57:37.389Z,99879.97
2022-11-28T15:00:13.397Z,99881.69
2022-11-28T15:02:48.759Z,99889.91
2022-11-28T15:05:22.207Z,99884.19
2022-11-28T15:08:10.132Z,99894.16
2022-11-28T15:11:07.745Z,99891.56
2022-11-28T15:13:43.209Z,99887.94
2022-11-28T15:16:15.239Z,99891.22
2022-11-28T15:19:07.688Z,99904.69
2022-11-28T15:21:43.799Z,99898.53
2022-11-28T15:24:30.589Z,99898.56
2022-11-28T15:27:15.712Z,99898.88
2022-11-28T15:29:42.127Z,99895.47
2022-11-28T15:32:14.684Z,99899.84
2022-11-28T15:34:41.348Z,99898.16
2022-11-28T15:37:17.409Z,99890.22
2022-11-28T15:39:47.763Z,99893.78
2022-11-28T15:42:32.417Z,99893.84
2022-11-28T15:45:05.240Z,99890.38
2022-11-28T15:47:31.956Z,99897.41
2022-11-28T15:50:16.955Z,99893.72
2022-11-28T15:53:16.853Z,99907.09
2022-11-28T15:55:44.006Z,99901.72
2022-11-28T15:58:19.220Z,99907.09
2022-11-28T16:00:50.528Z,99892.28
2022-11-28T16:03:22.610Z,99897.53
2022-11-28T16:05:52.770Z,99906.09
2022-11-28T16:08:25.076Z,99904.03
2022-11-28T16:10:51.547Z,99909.38
2022-11-28T16:13:21.239Z,99916.44
2022-11-28T16:15:50.493Z,99912.31
2022-11-28T16:18:17.253Z,99910.50
2022-11-28T16:20:44.008Z,99911.19
2022-11-28T16:23:20.176Z,99911.22
2022-11-28T16:25:58.983Z,99915.00
2022-11-28T16:28:40.632Z,99914.16
2022-11-28T16:31:20.357Z,99911.69
2022-11-28T16:33:47.732Z,99915.84
2022-11-28T16:36:36.873Z,99915.22
2022-11-28T16:39:12.380Z,99913.09
2022-11-28T16:42:07.386Z,99910.28
2022-11-28T16:44:34.063Z,99919.91
2022-11-28T16:47:00.799Z,99917.50
2022-11-28T16:49:35.933Z,99914.09
2022-11-28T16:52:21.040Z,99916.72
2022-11-28T16:54:48.675Z,99917.53
2022-11-28T16:57:15.751Z,99916.78
2022-11-28T16:59:44.446Z,99916.09
2022-11-28T17:02:26.746Z,99922.31
2022-11-28T17:04:53.867Z,99913.47
2022-11-28T17:07:23.079Z,99916.13
2022-11-28T17:09:50.666Z,99925.78
2022-11-28T17:12:37.039Z,99923.34
2022-11-28T17:15:03.573Z,99928.72
2022-11-28T17:17:30.476Z,99932.09
2022-11-28T17:19:56.876Z,99940.03
2022-11-28T17:22:26.694Z,99933.09
2022-11-28T17:24:59.362Z,99935.72
2022-11-28T17:27:25.768Z,99935.66
2022-11-28T17:29:52.167Z,99932.97
2022-11-28T17:32:18.819Z,99930.34
2022-11-28T17:34:46.036Z,99937.16
2022-11-28T17:37:12.815Z,99934.41
2022-11-28T17:39:39.187Z,99934.72
2022-11-28T17:42:06.371Z,99940.91
2022-11-28T17:44:36.216Z,99941.66
2022-11-28T17:47:03.576Z,99943.16
2022-11-28T17:49:30.883Z,99944.75
2022-11-28T17:51:57.396Z,99932.50
2022-11-28T17:54:25.280Z,99939.81
2022-11-28T17:56:52.958Z,99942.38
2022-11-28T17:59:21.216Z,99943.19
2022-11-28T18:01:48.365Z,99943.91
2022-11-28T18:04:14.938Z,99936.91
2022-11-28T18:06:45.811Z,99932.41
2022-11-28T18:09:13.534Z,99933.59
2022-11-28T18:11:41.662Z,99932.22
2022-11-28T18:14:08.857Z,99938.38
2022-11-28T18:16:40.094Z,99940.25
2022-11-28T18:19:06.871Z,99939.56
2022-11-28T18:21:33.264Z,99938.81
2022-11-28T18:23:59.639Z,99938.78
2022-11-28T18:26:26.460Z,99939.63
2022-11-28T18:28:53.709Z,99935.00
2022-11-28T18:31:24.167Z,99935.94
2022-11-28T18:33:51.428Z,99936.84
2022-11-28T18:36:26.394Z,99933.44
2022-11-28T18:39:00.266Z,99945.03
2022-11-28T18:41:27.393Z,99939.66
2022-11-28T18:43:58.444Z,99940.47
2022-11-28T18:46:25.968Z,99938.75
2022-11-28T18:48:53.408Z,99948.56
2022-11-28T18:51:28.792Z,99947.44
2022-11-28T18:53:56.357Z,99949.28
2022-11-28T18:56:23.061Z,99945.56
2022-11-28T18:58:51.811Z,99949.91
2022-11-28T19:01:19.723Z,99950.09
2022-11-28T19:03:54.952Z,99946.75
2022-11-28T19:06:22.655Z,99945.56
2022-11-28T19:08:53.243Z,99946.91
2022-11-28T19:11:20.054Z,99947.03
2022-11-28T19:13:47.723Z,99954.56
2022-11-28T19:16:16.814Z,99951.25
2022-11-28T19:18:43.933Z,99956.59
2022-11-28T19:21:20.092Z,99954.00
2022-11-28T19:23:49.785Z,99956.63
2022-11-28T19:26:19.308Z,99951.53
2022-11-28T19:28:46.647Z,99953.16
2022-11-28T19:31:21.338Z,99951.53
2022-11-28T19:34:02.205Z,99948.88
2022-11-28T19:36:40.981Z,99948.88
2022-11-28T19:39:09.456Z,99951.50
2022-11-28T19:41:35.863Z,99947.97
2022-11-28T19:44:02.288Z,99953.19
2022-11-28T19:46:35.107Z,99949.72
2022-11-28T19:49:02.556Z,99949.56
2022-11-28T19:51:28.947Z,99951.41
2022-11-28T19:53:59.880Z,99948.84
2022-11-28T19:56:29.651Z,99952.22
2022-11-28T19:58:56.012Z,99953.94
2022-11-28T20:01:23.761Z,99955.81
2022-11-28T20:03:51.838Z,99964.72
2022-11-28T20:06:23.787Z,99970.69
2022-11-28T20:08:51.692Z,99962.91
2022-11-28T20:11:21.153Z,99966.47
2022-11-28T20:13:47.636Z,99969.09
2022-11-28T20:16:15.893Z,99968.19
2022-11-28T20:18:43.903Z,99970.06
2022-11-28T20:21:15.754Z,99972.72
2022-11-28T20:23:47.884Z,99978.09
2022-11-28T20:26:15.643Z,99975.34
2022-11-28T20:28:43.194Z,99984.50
2022-11-28T20:31:21.261Z,99988.94
2022-11-28T20:33:49.302Z,99992.44
2022-11-28T20:36:18.136Z,99996.75
2022-11-28T20:38:44.694Z,99983.78
2022-11-28T20:41:13.590Z,99989.94
2022-11-28T20:43:41.145Z,99988.19
2022-11-28T20:46:13.716Z,99995.97
2022-11-28T20:48:41.011Z,99990.72
2022-11-28T20:51:15.715Z,99994.13
2022-11-28T20:53:42.331Z,99989.25
2022-11-28T20:56:12.483Z,99997.50
2022-11-28T20:58:38.982Z,99991.44
2022-11-28T21:01:05.961Z,100001.03
2022-11-28T21:03:32.899Z,100002.13
2022-11-28T21:06:01.266Z,99997.84
2022-11-28T21:08:30.337Z,100005.78
2022-11-28T21:10:56.800Z,99999.63
2022-11-28T21:13:23.183Z,99995.28
2022-11-28T21:15:49.757Z,100001.19
2022-11-28T21:18:16.827Z,99998.69
2022-11-28T21:20:45.931Z,99996.94
2022-11-28T21:23:13.783Z,100005.75
2022-11-28T21:25:41.475Z,100002.19
2022-11-28T21:28:09.491Z,99997.44
2022-11-28T21:30:44.383Z,99999.22
2022-11-28T21:33:12.271Z,100003.19
2022-11-28T21:35:39.548Z,100001.28
2022-11-28T21:38:07.105Z,100005.75
2022-11-28T21:40:33.877Z,100004.50
2022-11-28T21:43:00.279Z,100000.38
2022-11-28T21:45:26.728Z,99999.56
2022-11-28T21:47:53.156Z,100002.88
2022-11-28T21:50:19.567Z,100003.91
2022-11-28T21:52:45.916Z,100000.50
2022-11-28T21:55:12.321Z,99997.78
2022-11-28T21:57:38.815Z,100005.75
2022-11-28T22:00:06.027Z,99996.16
2022-11-28T22:02:32.458Z,99997.03
2022-11-28T22:04:59.964Z,100001.38
2022-11-28T22:07:26.438Z,100005.75
2022-11-28T22:09:54.055Z,100000.56
2022-11-28T22:12:20.454Z,99996.25
2022-11-28T22:14:47.175Z,100000.59
2022-11-28T22:17:13.868Z,100010.41
2022-11-28T22:19:41.343Z,100010.56
2022-11-28T22:22:07.675Z,100008.72
2022-11-28T22:24:34.026Z,100009.63
2022-11-28T22:27:00.464Z,100013.44
2022-11-28T22:29:26.894Z,100013.16
2022-11-28T22:31:53.544Z,100011.91
2022-11-28T22:34:19.958Z,100006.53
2022-11-28T22:36:46.314Z,100009.56
2022-11-28T22:39:12.700Z,100011.50
2022-11-28T22:41:39.304Z,100014.38
2022-11-28T22:44:05.627Z,100018.94
2022-11-28T22:46:32.909Z,100014.34
2022-11-28T22:49:00.388Z,100016.41
2022-11-28T22:51:28.308Z,100016.16
2022-11-28T22:53:56.953Z,100028.00
2022-11-28T22:56:23.823Z,100026.28
2022-11-28T22:58:50.683Z,100021.44
2022-11-28T23:01:29.127Z,100014.63
2022-11-28T23:03:56.093Z,100019.16
2022-11-28T23:06:25.794Z,100014.78
2022-11-28T23:08:52.877Z,100013.16
2022-11-28T23:11:22.624Z,100014.97
2022-11-28T23:13:50.299Z,100018.28
2022-11-28T23:16:25.272Z,100017.56
2022-11-28T23:18:54.147Z,100010.41
2022-11-28T23:21:22.868Z,100017.31
2022-11-28T23:23:50.052Z,100026.94
2022-11-28T23:26:19.120Z,100026.72
2022-11-28T23:28:46.286Z,100025.91
2022-11-28T23:31:32.986Z,100024.09
2022-11-28T23:34:01.672Z,100030.94
2022-11-28T23:36:41.712Z,100027.50
2022-11-28T23:39:17.468Z,100024.69
2022-11-28T23:41:44.622Z,100034.28
2022-11-28T23:44:12.516Z,100023.09
2022-11-28T23:46:39.538Z,100028.72
2022-11-28T23:49:06.297Z,100029.75
2022-11-28T23:51:33.044Z,100027.00
2022-11-28T23:53:59.478Z,100036.22
2022-11-28T23:56:32.277Z,100036.66
2022-11-28T23:59:01.244Z,100029.75
